sensor_id;sensor_type;location;lat;lon;timestamp;pressure;altitude;pressure_sealevel;temperature;humidity
53619;BME280;39505;53.040;18.488;2022-11-18T00:00:05;100449.25;;;-1.51;100.00
53619;BME280;39505;53.040;18.488;2022-11-18T00:00:29;100457.94;;;-1.49;100.00
53619;BME280;39505;53.040;18.488;2022-11-18T00:00:45;100456.25;;;-1.50;100.00
53619;BME280;39505;53.040;18.488;2022-11-18T00:01:04;100450.19;;;-1.52;100.00
53619;BME280;39505;53.040;18.488;2022-11-18T00:01:19;100449.25;;;-1.51;100.00
53619;BME280;39505;53.040;18.488;2022-11-18T00:01:32;100459.72;;;-1.50;100.00
53619;BME280;39505;53.040;18.488;2022-11-18T00:01:46;100449.22;;;-1.50;100.00
53619;BME280;39505;53.040;18.488;2022-11-18T00:01:59;100452.69;;;-1.49;100.00
53619;BME280;39505;53.040;18.488;2022-11-18T00:02:11;100458.78;;;-1.49;100.00
53619;BME280;39505;53.040;18.488;2022-11-18T00:02:24;100452.63;;;-1.47;100.00
53619;BME280;39505;53.040;18.488;2022-11-18T00:02:37;100450.91;;;-1.49;100.00
53619;BME280;39505;53.040;18.488;2022-11-18T00:02:49;100449.06;;;-1.46;100.00
53619;BME280;39505;53.040;18.488;2022-11-18T00:03:02;100450.81;;;-1.45;100.00
53619;BME280;39505;53.040;18.488;2022-11-18T00:03:15;100456.91;;;-1.45;100.00
53619;BME280;39505;53.040;18.488;2022-11-18T00:03:29;100446.44;;;-1.46;100.00
53619;BME280;39505;53.040;18.488;2022-11-18T00:03:42;100452.59;;;-1.46;100.00
53619;BME280;39505;53.040;18.488;2022-11-18T00:03:55;100449.94;;;-1.46;100.00
53619;BME280;39505;53.040;18.488;2022-11-18T00:04:08;100449.06;;;-1.46;100.00
53619;BME280;39505;53.040;18.488;2022-11-18T00:04:20;100450.81;;;-1.45;100.00
53619;BME280;39505;53.040;18.488;2022-11-18T00:04:34;100450.81;;;-1.45;100.00
53619;BME280;39505;53.040;18.488;2022-11-18T00:04:46;100449.88;;;-1.44;100.00
53619;BME280;39505;53.040;18.488;2022-11-18T00:05:00;100450.81;;;-1.45;100.00
53619;BME280;39505;53.040;18.488;2022-11-18T00:05:13;100455.13;;;-1.44;100.00
53619;BME280;39505;53.040;18.488;2022-11-18T00:05:25;100446.38;;;-1.45;100.00
53619;BME280;39505;53.040;18.488;2022-11-18T00:05:38;100452.50;;;-1.44;100.00
53619;BME280;39505;53.040;18.488;2022-11-18T00:05:54;100448.16;;;-1.45;100.00
53619;BME280;39505;53.040;18.488;2022-11-18T00:06:10;100442.91;;;-1.45;100.00
53619;BME280;39505;53.040;18.488;2022-11-18T00:06:26;100451.59;;;-1.43;100.00
53619;BME280;39505;53.040;18.488;2022-11-18T00:06:39;100449.03;;;-1.45;100.00
53619;BME280;39505;53.040;18.488;2022-11-18T00:06:52;100446.38;;;-1.45;100.00
53619;BME280;39505;53.040;18.488;2022-11-18T00:07:05;100447.25;;;-1.44;100.00
53619;BME280;39505;53.040;18.488;2022-11-18T00:07:19;100455.06;;;-1.43;100.00
53619;BME280;39505;53.040;18.488;2022-11-18T00:07:32;100447.25;;;-1.44;100.00
53619;BME280;39505;53.040;18.488;2022-11-18T00:07:44;100448.09;;;-1.44;100.00
53619;BME280;39505;53.040;18.488;2022-11-18T00:07:58;100455.91;;;-1.42;100.00
53619;BME280;39505;53.040;18.488;2022-11-18T00:08:11;100452.38;;;-1.41;100.00
53619;BME280;39505;53.040;18.488;2022-11-18T00:08:24;100448.88;;;-1.42;100.00
53619;BME280;39505;53.040;18.488;2022-11-18T00:08:37;100447.19;;;-1.43;100.00
53619;BME280;39505;53.040;18.488;2022-11-18T00:08:50;100444.56;;;-1.43;100.00
53619;BME280;39505;53.040;18.488;2022-11-18T00:09:03;100449.75;;;-1.41;100.00
53619;BME280;39505;53.040;18.488;2022-11-18T00:09:16;100449.75;;;-1.41;100.00
53619;BME280;39505;53.040;18.488;2022-11-18T00:09:30;100446.19;;;-1.40;100.00
53619;BME280;39505;53.040;18.488;2022-11-18T00:09:42;100448.81;;;-1.40;100.00
53619;BME280;39505;53.040;18.488;2022-11-18T00:09:55;100447.97;;;-1.41;100.00
53619;BME280;39505;53.040;18.488;2022-11-18T00:10:08;100441.88;;;-1.41;100.00
53619;BME280;39505;53.040;18.488;2022-11-18T00:10:21;100443.56;;;-1.40;100.00
53619;BME280;39505;53.040;18.488;2022-11-18T00:10:37;100440.16;;;-1.42;100.00
53619;BME280;39505;53.040;18.488;2022-11-18T00:10:51;100443.56;;;-1.40;100.00
53619;BME280;39505;53.040;18.488;2022-11-18T00:11:06;100445.28;;;-1.39;100.00
53619;BME280;39505;53.040;18.488;2022-11-18T00:11:21;100447.13;;;-1.41;100.00
53619;BME280;39505;53.040;18.488;2022-11-18T00:11:52;100442.66;;;-1.39;100.00
53619;BME280;39505;53.040;18.488;2022-11-18T00:12:23;100440.03;;;-1.39;100.00
53619;BME280;39505;53.040;18.488;2022-11-18T00:12:56;100451.41;;;-1.39;100.00
53619;BME280;39505;53.040;18.488;2022-11-18T00:13:28;100445.28;;;-1.39;100.00
53619;BME280;39505;53.040;18.488;2022-11-18T00:13:59;100440.03;;;-1.39;100.00
53619;BME280;39505;53.040;18.488;2022-11-18T00:14:30;100437.47;;;-1.41;100.00
53619;BME280;39505;53.040;18.488;2022-11-18T00:14:45;100444.31;;;-1.37;100.00
53619;BME280;39505;53.040;18.488;2022-11-18T00:14:58;100441.72;;;-1.38;100.00
53619;BME280;39505;53.040;18.488;2022-11-18T00:15:11;100432.00;;;-1.36;100.00
53619;BME280;39505;53.040;18.488;2022-11-18T00:15:23;100443.47;;;-1.37;100.00
53619;BME280;39505;53.040;18.488;2022-11-18T00:15:42;100442.66;;;-1.39;100.00
53619;BME280;39505;53.040;18.488;2022-11-18T00:15:59;100432.94;;;-1.37;100.00
53619;BME280;39505;53.040;18.488;2022-11-18T00:16:12;100439.94;;;-1.38;100.00
53619;BME280;39505;53.040;18.488;2022-11-18T00:16:25;100440.81;;;-1.37;100.00
53619;BME280;39505;53.040;18.488;2022-11-18T00:16:38;100429.50;;;-1.39;100.00
53619;BME280;39505;53.040;18.488;2022-11-18T00:16:53;100439.09;;;-1.38;100.00
53619;BME280;39505;53.040;18.488;2022-11-18T00:17:07;100440.03;;;-1.39;100.00
53619;BME280;39505;53.040;18.488;2022-11-18T00:17:19;100439.03;;;-1.37;100.00
53619;BME280;39505;53.040;18.488;2022-11-18T00:17:32;100433.78;;;-1.37;100.00
53619;BME280;39505;53.040;18.488;2022-11-18T00:17:45;100437.31;;;-1.38;100.00
53619;BME280;39505;53.040;18.488;2022-11-18T00:17:58;100432.94;;;-1.37;100.00
53619;BME280;39505;53.040;18.488;2022-11-18T00:18:11;100429.38;;;-1.36;100.00
53619;BME280;39505;53.040;18.488;2022-11-18T00:18:25;100435.47;;;-1.36;100.00
53619;BME280;39505;53.040;18.488;2022-11-18T00:18:38;100437.22;;;-1.35;100.00
53619;BME280;39505;53.040;18.488;2022-11-18T00:18:51;100434.63;;;-1.36;100.00
53619;BME280;39505;53.040;18.488;2022-11-18T00:19:03;100443.31;;;-1.34;100.00
53619;BME280;39505;53.040;18.488;2022-11-18T00:19:16;100437.06;;;-1.32;100.00
53619;BME280;39505;53.040;18.488;2022-11-18T00:19:32;100435.38;;;-1.33;100.00
53619;BME280;39505;53.040;18.488;2022-11-18T00:19:46;100430.97;;;-1.32;100.00
53619;BME280;39505;53.040;18.488;2022-11-18T00:19:58;100431.84;;;-1.33;100.00
53619;BME280;39505;53.040;18.488;2022-11-18T00:20:11;100428.31;;;-1.32;100.00
53619;BME280;39505;53.040;18.488;2022-11-18T00:20:24;100430.09;;;-1.33;100.00
53619;BME280;39505;53.040;18.488;2022-11-18T00:20:36;100434.44;;;-1.32;100.00
53619;BME280;39505;53.040;18.488;2022-11-18T00:20:50;100423.97;;;-1.33;100.00
53619;BME280;39505;53.040;18.488;2022-11-18T00:21:03;100432.66;;;-1.31;100.00
53619;BME280;39505;53.040;18.488;2022-11-18T00:21:16;100428.28;;;-1.31;100.00
53619;BME280;39505;53.040;18.488;2022-11-18T00:21:29;100429.97;;;-1.30;100.00
53619;BME280;39505;53.040;18.488;2022-11-18T00:21:42;100427.38;;;-1.31;100.00
53619;BME280;39505;53.040;18.488;2022-11-18T00:21:54;100425.56;;;-1.29;100.00
53619;BME280;39505;53.040;18.488;2022-11-18T00:22:10;100433.59;;;-1.32;100.00
53619;BME280;39505;53.040;18.488;2022-11-18T00:22:25;100431.81;;;-1.32;100.00
53619;BME280;39505;53.040;18.488;2022-11-18T00:22:41;100429.22;;;-1.33;100.00
53619;BME280;39505;53.040;18.488;2022-11-18T00:22:53;100432.66;;;-1.31;100.00
53619;BME280;39505;53.040;18.488;2022-11-18T00:23:06;100428.31;;;-1.32;100.00
53619;BME280;39505;53.040;18.488;2022-11-18T00:23:19;100432.66;;;-1.31;100.00
53619;BME280;39505;53.040;18.488;2022-11-18T00:23:32;100427.47;;;-1.33;100.00
53619;BME280;39505;53.040;18.488;2022-11-18T00:23:47;100426.59;;;-1.33;100.00
53619;BME280;39505;53.040;18.488;2022-11-18T00:24:00;100431.84;;;-1.33;100.00
53619;BME280;39505;53.040;18.488;2022-11-18T00:24:13;100425.75;;;-1.34;100.00
53619;BME280;39505;53.040;18.488;2022-11-18T00:24:26;100431.00;;;-1.34;100.00
53619;BME280;39505;53.040;18.488;2022-11-18T00:24:39;100428.31;;;-1.32;100.00
53619;BME280;39505;53.040;18.488;2022-11-18T00:24:52;100428.31;;;-1.32;100.00
53619;BME280;39505;53.040;18.488;2022-11-18T00:25:05;100430.09;;;-1.33;100.00
53619;BME280;39505;53.040;18.488;2022-11-18T00:25:19;100425.75;;;-1.34;100.00
53619;BME280;39505;53.040;18.488;2022-11-18T00:25:32;100432.78;;;-1.34;100.00
53619;BME280;39505;53.040;18.488;2022-11-18T00:25:45;100424.06;;;-1.35;100.00
53619;BME280;39505;53.040;18.488;2022-11-18T00:26:01;100434.56;;;-1.35;100.00
53619;BME280;39505;53.040;18.488;2022-11-18T00:26:14;100435.44;;;-1.34;100.00
53619;BME280;39505;53.040;18.488;2022-11-18T00:26:27;100429.38;;;-1.36;100.00
53619;BME280;39505;53.040;18.488;2022-11-18T00:26:39;100435.44;;;-1.34;100.00
53619;BME280;39505;53.040;18.488;2022-11-18T00:26:53;100436.31;;;-1.35;100.00
53619;BME280;39505;53.040;18.488;2022-11-18T00:27:07;100429.38;;;-1.36;100.00
53619;BME280;39505;53.040;18.488;2022-11-18T00:27:19;100432.06;;;-1.38;100.00
53619;BME280;39505;53.040;18.488;2022-11-18T00:27:32;100429.50;;;-1.39;100.00
53619;BME280;39505;53.040;18.488;2022-11-18T00:27:44;100435.69;;;-1.40;100.00
53619;BME280;39505;53.040;18.488;2022-11-18T00:27:57;100438.31;;;-1.40;100.00
53619;BME280;39505;53.040;18.488;2022-11-18T00:28:10;100433.03;;;-1.40;100.00
53619;BME280;39505;53.040;18.488;2022-11-18T00:28:22;100425.16;;;-1.40;100.00
53619;BME280;39505;53.040;18.488;2022-11-18T00:28:36;100433.03;;;-1.40;100.00
53619;BME280;39505;53.040;18.488;2022-11-18T00:28:49;100434.78;;;-1.39;100.00
53619;BME280;39505;53.040;18.488;2022-11-18T00:29:02;100436.63;;;-1.41;100.00
53619;BME280;39505;53.040;18.488;2022-11-18T00:29:15;100431.34;;;-1.41;100.00
53619;BME280;39505;53.040;18.488;2022-11-18T00:29:28;100433.09;;;-1.42;100.00
53619;BME280;39505;53.040;18.488;2022-11-18T00:29:43;100431.34;;;-1.41;100.00
53619;BME280;39505;53.040;18.488;2022-11-18T00:29:55;100424.38;;;-1.42;100.00
53619;BME280;39505;53.040;18.488;2022-11-18T00:30:09;100431.47;;;-1.44;100.00
53619;BME280;39505;53.040;18.488;2022-11-18T00:30:22;100433.19;;;-1.43;100.00
53619;BME280;39505;53.040;18.488;2022-11-18T00:30:36;100437.56;;;-1.44;100.00
53619;BME280;39505;53.040;18.488;2022-11-18T00:30:48;100428.03;;;-1.46;100.00
53619;BME280;39505;53.040;18.488;2022-11-18T00:31:02;100437.72;;;-1.47;100.00
53619;BME280;39505;53.040;18.488;2022-11-18T00:31:18;100434.28;;;-1.49;100.00
53619;BME280;39505;53.040;18.488;2022-11-18T00:31:30;100441.28;;;-1.48;100.00
53619;BME280;39505;53.040;18.488;2022-11-18T00:31:43;100434.28;;;-1.49;100.00
53619;BME280;39505;53.040;18.488;2022-11-18T00:31:56;100438.66;;;-1.48;100.00
53619;BME280;39505;53.040;18.488;2022-11-18T00:32:09;100437.84;;;-1.50;100.00
53619;BME280;39505;53.040;18.488;2022-11-18T00:32:22;100436.97;;;-1.51;100.00
53619;BME280;39505;53.040;18.488;2022-11-18T00:32:34;100442.22;;;-1.51;100.00
53619;BME280;39505;53.040;18.488;2022-11-18T00:32:47;100441.38;;;-1.51;100.00
53619;BME280;39505;53.040;18.488;2022-11-18T00:33:01;100430.91;;;-1.53;100.00
53619;BME280;39505;53.040;18.488;2022-11-18T00:33:13;100433.53;;;-1.53;100.00
53619;BME280;39505;53.040;18.488;2022-11-18T00:33:26;100431.84;;;-1.54;100.00
53619;BME280;39505;53.040;18.488;2022-11-18T00:33:39;100438.81;;;-1.53;100.00
53619;BME280;39505;53.040;18.488;2022-11-18T00:33:52;100438.91;;;-1.54;100.00
53619;BME280;39505;53.040;18.488;2022-11-18T00:34:05;100430.16;;;-1.55;100.00
53619;BME280;39505;53.040;18.488;2022-11-18T00:34:18;100431.84;;;-1.54;100.00
53619;BME280;39505;53.040;18.488;2022-11-18T00:34:31;100436.25;;;-1.54;100.00
53619;BME280;39505;53.040;18.488;2022-11-18T00:34:44;100435.41;;;-1.55;100.00
53619;BME280;39505;53.040;18.488;2022-11-18T00:34:57;100438.03;;;-1.55;100.00
53619;BME280;39505;53.040;18.488;2022-11-18T00:35:09;100436.19;;;-1.53;100.00
53619;BME280;39505;53.040;18.488;2022-11-18T00:35:22;100436.19;;;-1.53;100.00
53619;BME280;39505;53.040;18.488;2022-11-18T00:35:35;100437.97;;;-1.53;100.00
53619;BME280;39505;53.040;18.488;2022-11-18T00:35:52;100440.59;;;-1.53;100.00
53619;BME280;39505;53.040;18.488;2022-11-18T00:36:06;100435.41;;;-1.55;100.00
53619;BME280;39505;53.040;18.488;2022-11-18T00:36:20;100431.91;;;-1.55;100.00
53619;BME280;39505;53.040;18.488;2022-11-18T00:36:33;100433.63;;;-1.54;100.00
53619;BME280;39505;53.040;18.488;2022-11-18T00:36:47;100435.47;;;-1.56;100.00
53619;BME280;39505;53.040;18.488;2022-11-18T00:37:00;100434.47;;;-1.54;100.00
53619;BME280;39505;53.040;18.488;2022-11-18T00:37:12;100432.78;;;-1.55;100.00
53619;BME280;39505;53.040;18.488;2022-11-18T00:37:26;100436.31;;;-1.56;100.00
53619;BME280;39505;53.040;18.488;2022-11-18T00:37:39;100431.06;;;-1.56;100.00
53619;BME280;39505;53.040;18.488;2022-11-18T00:37:53;100445.13;;;-1.57;100.00
53619;BME280;39505;53.040;18.488;2022-11-18T00:38:05;100438.16;;;-1.58;100.00
53619;BME280;39505;53.040;18.488;2022-11-18T00:38:18;100437.25;;;-1.57;100.00
53619;BME280;39505;53.040;18.488;2022-11-18T00:38:31;100440.72;;;-1.56;100.00
53619;BME280;39505;53.040;18.488;2022-11-18T00:38:44;100432.91;;;-1.58;100.00
53619;BME280;39505;53.040;18.488;2022-11-18T00:38:57;100442.50;;;-1.57;100.00
53619;BME280;39505;53.040;18.488;2022-11-18T00:39:11;100437.16;;;-1.55;100.00
53619;BME280;39505;53.040;18.488;2022-11-18T00:39:23;100442.41;;;-1.55;100.00
53619;BME280;39505;53.040;18.488;2022-11-18T00:39:37;100440.66;;;-1.55;100.00
53619;BME280;39505;53.040;18.488;2022-11-18T00:39:50;100443.22;;;-1.53;100.00
53619;BME280;39505;53.040;18.488;2022-11-18T00:40:03;100438.81;;;-1.53;100.00
53619;BME280;39505;53.040;18.488;2022-11-18T00:40:16;100444.06;;;-1.53;100.00
53619;BME280;39505;53.040;18.488;2022-11-18T00:40:29;100441.38;;;-1.51;100.00
53619;BME280;39505;53.040;18.488;2022-11-18T00:40:42;100437.06;;;-1.52;100.00
53619;BME280;39505;53.040;18.488;2022-11-18T00:41:00;100438.94;;;-1.56;100.00
53619;BME280;39505;53.040;18.488;2022-11-18T00:41:14;100431.00;;;-1.54;100.00
53619;BME280;39505;53.040;18.488;2022-11-18T00:41:28;100434.44;;;-1.52;100.00
53619;BME280;39505;53.040;18.488;2022-11-18T00:42:01;100433.53;;;-1.53;100.00
53619;BME280;39505;53.040;18.488;2022-11-18T00:42:32;100440.53;;;-1.52;100.00
53619;BME280;39505;53.040;18.488;2022-11-18T00:43:03;100436.00;;;-1.48;100.00
53619;BME280;39505;53.040;18.488;2022-11-18T00:43:16;100440.41;;;-1.49;100.00
53619;BME280;39505;53.040;18.488;2022-11-18T00:43:29;100444.75;;;-1.47;100.00
53619;BME280;39505;53.040;18.488;2022-11-18T00:43:42;100446.53;;;-1.48;100.00
53619;BME280;39505;53.040;18.488;2022-11-18T00:43:55;100442.13;;;-1.47;100.00
53619;BME280;39505;53.040;18.488;2022-11-18T00:44:07;100447.38;;;-1.47;100.00
53619;BME280;39505;53.040;18.488;2022-11-18T00:44:21;100441.97;;;-1.44;100.00
53619;BME280;39505;53.040;18.488;2022-11-18T00:44:33;100445.53;;;-1.45;100.00
53619;BME280;39505;53.040;18.488;2022-11-18T00:44:46;100440.28;;;-1.45;100.00
53619;BME280;39505;53.040;18.488;2022-11-18T00:44:59;100446.38;;;-1.45;100.00
53619;BME280;39505;53.040;18.488;2022-11-18T00:45:12;100440.28;;;-1.45;100.00
53619;BME280;39505;53.040;18.488;2022-11-18T00:45:25;100442.91;;;-1.45;100.00
53619;BME280;39505;53.040;18.488;2022-11-18T00:45:38;100446.38;;;-1.45;100.00
53619;BME280;39505;53.040;18.488;2022-11-18T00:45:50;100440.28;;;-1.45;100.00
53619;BME280;39505;53.040;18.488;2022-11-18T00:46:04;100443.81;;;-1.46;100.00
53619;BME280;39505;53.040;18.488;2022-11-18T00:46:18;100437.66;;;-1.45;100.00
53619;BME280;39505;53.040;18.488;2022-11-18T00:46:30;100440.28;;;-1.45;100.00
53619;BME280;39505;53.040;18.488;2022-11-18T00:46:43;100443.81;;;-1.46;100.00
53619;BME280;39505;53.040;18.488;2022-11-18T00:46:56;100436.00;;;-1.48;100.00
53619;BME280;39505;53.040;18.488;2022-11-18T00:47:10;100442.06;;;-1.46;100.00
53619;BME280;39505;53.040;18.488;2022-11-18T00:47:22;100435.13;;;-1.49;100.00
53619;BME280;39505;53.040;18.488;2022-11-18T00:47:35;100436.00;;;-1.48;100.00
53619;BME280;39505;53.040;18.488;2022-11-18T00:47:48;100435.13;;;-1.49;100.00
53619;BME280;39505;53.040;18.488;2022-11-18T00:48:01;100438.69;;;-1.50;100.00
53619;BME280;39505;53.040;18.488;2022-11-18T00:48:14;100438.66;;;-1.48;100.00
53619;BME280;39505;53.040;18.488;2022-11-18T00:48:32;100437.75;;;-1.49;100.00
53619;BME280;39505;53.040;18.488;2022-11-18T00:48:46;100441.31;;;-1.50;100.00
53619;BME280;39505;53.040;18.488;2022-11-18T00:48:59;100439.59;;;-1.51;100.00
53619;BME280;39505;53.040;18.488;2022-11-18T00:49:11;100436.06;;;-1.50;100.00
53619;BME280;39505;53.040;18.488;2022-11-18T00:49:24;100439.59;;;-1.51;100.00
53619;BME280;39505;53.040;18.488;2022-11-18T00:49:37;100440.41;;;-1.49;100.00
53619;BME280;39505;53.040;18.488;2022-11-18T00:49:49;100439.53;;;-1.49;100.00
53619;BME280;39505;53.040;18.488;2022-11-18T00:50:02;100437.84;;;-1.50;100.00
53619;BME280;39505;53.040;18.488;2022-11-18T00:50:16;100437.75;;;-1.49;100.00
53619;BME280;39505;53.040;18.488;2022-11-18T00:50:29;100442.13;;;-1.47;100.00
53619;BME280;39505;53.040;18.488;2022-11-18T00:50:42;100441.19;;;-1.46;100.00
53619;BME280;39505;53.040;18.488;2022-11-18T00:50:56;100442.13;;;-1.47;100.00
53619;BME280;39505;53.040;18.488;2022-11-18T00:51:10;100437.84;;;-1.50;100.00
53619;BME280;39505;53.040;18.488;2022-11-18T00:51:24;100440.41;;;-1.49;100.00
53619;BME280;39505;53.040;18.488;2022-11-18T00:51:37;100445.66;;;-1.49;100.00
53619;BME280;39505;53.040;18.488;2022-11-18T00:51:50;100441.19;;;-1.46;100.00
53619;BME280;39505;53.040;18.488;2022-11-18T00:52:03;100443.81;;;-1.46;100.00
53619;BME280;39505;53.040;18.488;2022-11-18T00:52:17;100440.28;;;-1.45;100.00
53619;BME280;39505;53.040;18.488;2022-11-18T00:52:31;100441.97;;;-1.44;100.00
53619;BME280;39505;53.040;18.488;2022-11-18T00:52:44;100440.19;;;-1.44;100.00
53619;BME280;39505;53.040;18.488;2022-11-18T00:52:57;100447.19;;;-1.43;100.00
53619;BME280;39505;53.040;18.488;2022-11-18T00:53:10;100439.34;;;-1.44;100.00
53619;BME280;39505;53.040;18.488;2022-11-18T00:53:24;100444.50;;;-1.41;100.00
53619;BME280;39505;53.040;18.488;2022-11-18T00:53:37;100443.56;;;-1.40;100.00
53619;BME280;39505;53.040;18.488;2022-11-18T00:53:50;100442.72;;;-1.41;100.00
53619;BME280;39505;53.040;18.488;2022-11-18T00:54:02;100441.78;;;-1.40;100.00
53619;BME280;39505;53.040;18.488;2022-11-18T00:54:15;100440.88;;;-1.39;100.00
53619;BME280;39505;53.040;18.488;2022-11-18T00:54:29;100439.03;;;-1.37;100.00
53619;BME280;39505;53.040;18.488;2022-11-18T00:54:42;100442.53;;;-1.36;100.00
53619;BME280;39505;53.040;18.488;2022-11-18T00:54:54;100439.03;;;-1.37;100.00
53619;BME280;39505;53.040;18.488;2022-11-18T00:55:08;100441.59;;;-1.35;100.00
53619;BME280;39505;53.040;18.488;2022-11-18T00:55:20;100446.84;;;-1.35;100.00
53619;BME280;39505;53.040;18.488;2022-11-18T00:55:34;100444.22;;;-1.35;100.00
53619;BME280;39505;53.040;18.488;2022-11-18T00:55:47;100433.78;;;-1.37;100.00
53619;BME280;39505;53.040;18.488;2022-11-18T00:56:00;100436.28;;;-1.34;100.00
53619;BME280;39505;53.040;18.488;2022-11-18T00:56:12;100427.53;;;-1.34;100.00
53619;BME280;39505;53.040;18.488;2022-11-18T00:56:25;100447.63;;;-1.33;100.00
53619;BME280;39505;53.040;18.488;2022-11-18T00:56:38;100445.00;;;-1.33;100.00
53619;BME280;39505;53.040;18.488;2022-11-18T00:56:51;100439.75;;;-1.33;100.00
53619;BME280;39505;53.040;18.488;2022-11-18T00:57:03;100439.75;;;-1.33;100.00
53619;BME280;39505;53.040;18.488;2022-11-18T00:57:17;100438.78;;;-1.31;100.00
53619;BME280;39505;53.040;18.488;2022-11-18T00:57:30;100432.66;;;-1.31;100.00
53619;BME280;39505;53.040;18.488;2022-11-18T00:57:43;100439.63;;;-1.30;100.00
53619;BME280;39505;53.040;18.488;2022-11-18T00:57:55;100439.63;;;-1.30;100.00
53619;BME280;39505;53.040;18.488;2022-11-18T00:58:08;100436.06;;;-1.29;100.00
53619;BME280;39505;53.040;18.488;2022-11-18T00:58:21;100436.94;;;-1.29;100.00
53619;BME280;39505;53.040;18.488;2022-11-18T00:58:33;100429.97;;;-1.30;100.00
53619;BME280;39505;53.040;18.488;2022-11-18T00:58:47;100438.59;;;-1.26;100.00
53619;BME280;39505;53.040;18.488;2022-11-18T00:59:00;100439.50;;;-1.27;100.00
53619;BME280;39505;53.040;18.488;2022-11-18T00:59:12;100435.09;;;-1.27;100.00
53619;BME280;39505;53.040;18.488;2022-11-18T00:59:25;100438.59;;;-1.26;100.00
53619;BME280;39505;53.040;18.488;2022-11-18T00:59:38;100432.41;;;-1.25;100.00
53619;BME280;39505;53.040;18.488;2022-11-18T00:59:51;100440.22;;;-1.23;100.00
53619;BME280;39505;53.040;18.488;2022-11-18T01:00:04;100445.50;;;-1.23;100.00
53619;BME280;39505;53.040;18.488;2022-11-18T01:00:19;100440.28;;;-1.25;100.00
53619;BME280;39505;53.040;18.488;2022-11-18T01:00:31;100434.13;;;-1.24;100.00
53619;BME280;39505;53.040;18.488;2022-11-18T01:00:46;100431.41;;;-1.22;100.00
53619;BME280;39505;53.040;18.488;2022-11-18T01:01:02;100434.13;;;-1.24;100.00
53619;BME280;39505;53.040;18.488;2022-11-18T01:01:16;100433.19;;;-1.23;100.00
53619;BME280;39505;53.040;18.488;2022-11-18T01:01:29;100431.41;;;-1.22;100.00
53619;BME280;39505;53.040;18.488;2022-11-18T01:01:41;100430.56;;;-1.23;100.00
53619;BME280;39505;53.040;18.488;2022-11-18T01:01:56;100433.06;;;-1.20;100.00
53619;BME280;39505;53.040;18.488;2022-11-18T01:02:09;100432.13;;;-1.19;100.00
53619;BME280;39505;53.040;18.488;2022-11-18T01:02:21;100431.34;;;-1.21;100.00
53619;BME280;39505;53.040;18.488;2022-11-18T01:02:34;100432.13;;;-1.19;100.00
53619;BME280;39505;53.040;18.488;2022-11-18T01:02:47;100426.03;;;-1.19;100.00
53619;BME280;39505;53.040;18.488;2022-11-18T01:03:00;100428.66;;;-1.19;100.00
53619;BME280;39505;53.040;18.488;2022-11-18T01:03:14;100433.91;;;-1.19;100.00
53619;BME280;39505;53.040;18.488;2022-11-18T01:03:27;100432.19;;;-1.20;100.00
53619;BME280;39505;53.040;18.488;2022-11-18T01:03:40;100427.81;;;-1.20;100.00
53619;BME280;39505;53.040;18.488;2022-11-18T01:03:52;100432.13;;;-1.19;100.00
53619;BME280;39505;53.040;18.488;2022-11-18T01:04:05;100426.09;;;-1.21;100.00
53619;BME280;39505;53.040;18.488;2022-11-18T01:04:18;100429.56;;;-1.20;100.00
53619;BME280;39505;53.040;18.488;2022-11-18T01:04:31;100428.72;;;-1.21;100.00
53619;BME280;39505;53.040;18.488;2022-11-18T01:04:43;100427.81;;;-1.20;100.00
53619;BME280;39505;53.040;18.488;2022-11-18T01:04:57;100420.78;;;-1.19;100.00
53619;BME280;39505;53.040;18.488;2022-11-18T01:05:09;100430.44;;;-1.20;100.00
53619;BME280;39505;53.040;18.488;2022-11-18T01:05:22;100425.19;;;-1.20;100.00
53619;BME280;39505;53.040;18.488;2022-11-18T01:05:35;100426.94;;;-1.20;100.00
53619;BME280;39505;53.040;18.488;2022-11-18T01:05:49;100431.28;;;-1.19;100.00
53619;BME280;39505;53.040;18.488;2022-11-18T01:06:01;100430.44;;;-1.20;100.00
53619;BME280;39505;53.040;18.488;2022-11-18T01:06:15;100430.44;;;-1.20;100.00
53619;BME280;39505;53.040;18.488;2022-11-18T01:06:28;100425.19;;;-1.20;100.00
53619;BME280;39505;53.040;18.488;2022-11-18T01:06:41;100425.19;;;-1.20;100.00
53619;BME280;39505;53.040;18.488;2022-11-18T01:06:54;100425.19;;;-1.20;100.00
53619;BME280;39505;53.040;18.488;2022-11-18T01:07:06;100425.19;;;-1.20;100.00
53619;BME280;39505;53.040;18.488;2022-11-18T01:07:19;100423.47;;;-1.21;100.00
53619;BME280;39505;53.040;18.488;2022-11-18T01:07:33;100420.78;;;-1.19;100.00
53619;BME280;39505;53.040;18.488;2022-11-18T01:07:47;100422.56;;;-1.20;100.00
53619;BME280;39505;53.040;18.488;2022-11-18T01:08:00;100421.63;;;-1.19;100.00
53619;BME280;39505;53.040;18.488;2022-11-18T01:08:13;100417.28;;;-1.20;100.00
53619;BME280;39505;53.040;18.488;2022-11-18T01:08:26;100423.31;;;-1.18;100.00
53619;BME280;39505;53.040;18.488;2022-11-18T01:08:38;100425.88;;;-1.16;100.00
53619;BME280;39505;53.040;18.488;2022-11-18T01:08:51;100418.06;;;-1.18;100.00
53619;BME280;39505;53.040;18.488;2022-11-18T01:09:05;100425.03;;;-1.17;100.00
53619;BME280;39505;53.040;18.488;2022-11-18T01:09:17;100421.47;;;-1.16;100.00
53619;BME280;39505;53.040;18.488;2022-11-18T01:09:30;100420.56;;;-1.15;100.00
53619;BME280;39505;53.040;18.488;2022-11-18T01:09:43;100426.69;;;-1.14;100.00
53619;BME280;39505;53.040;18.488;2022-11-18T01:09:55;100423.19;;;-1.15;100.00
53619;BME280;39505;53.040;18.488;2022-11-18T01:10:09;100426.69;;;-1.14;100.00
53619;BME280;39505;53.040;18.488;2022-11-18T01:10:22;100417.09;;;-1.15;100.00
53619;BME280;39505;53.040;18.488;2022-11-18T01:10:35;100408.31;;;-1.16;100.00